Takatsuki, Japan
Current Conditions -  °F | °C
As of 8:00 PM on Monday 20 Oct 2014 (Local Time) from RJOO Reporting Station
Rain Showers Rain Showers  
Wind Chill: 66°   Ceiling: 7000
Heat Index: 66°   Visibility: 6mi
Dew Point: 63°   Wind: 6mph
Humidity: 88%   Direction: 90°E
Pressure: 30.12"   Gusts: NA
Location:  34.85°N, 135.62°E
Report Text: RJOO 201100Z 09005KT 050V120 9999 VCSH FEW003 SCT030 BKN070 19/17 Q1020 RMK 1ST003 3CU030 5AC070 A3013
Loading
Personal Weather Stations






























Interactive Weather Map
Tropical Storm Tracking
New forecast layout! Learn more

10-Day Weather Forecast

Advertisements
Track Severe Weather on mobile